Time;durP1;ratioP1;P1;durP2;ratioP2;P2;SDS_P1;SDS_P2;PMS_P1;PMS_P2;Temp;Humidity;BMP_temperature;BMP_pressure;BME280_temperature;BME280_humidity;BME280_pressure;Samples;Min_cycle;Max_cycle;Signal;HPM_P1;HPM_P2
2022/03/19 00:00:53;;;;;;;17.77;5.72;;;;;;;;;;5051282;28;20037;-76
2022/03/19 00:03:20;;;;;;;19.23;4.93;;;;;;;;;;5066643;28;20093;-75
2022/03/19 00:05:46;;;;;;;16.52;5.70;;;;;;;;;;5067018;28;20028;-74
2022/03/19 00:08:16;;;;;;;16.90;5.22;;;6.30;76.80;;;;;;5060472;28;20040;-75
2022/03/19 00:10:42;;;;;;;17.45;4.68;;;6.40;77.40;;;;;;5065935;28;20104;-74
2022/03/19 00:13:07;;;;;;;14.68;5.10;;;6.30;76.90;;;;;;5073964;28;20063;-76
2022/03/19 00:15:34;;;;;;;21.08;6.00;;;6.30;76.60;;;;;;5073565;28;20021;-75
2022/03/19 00:17:59;;;;;;;14.32;4.80;;;6.40;76.00;;;;;;5074595;28;20022;-76
2022/03/19 00:20:25;;;;;;;15.32;5.15;;;6.10;76.00;;;;;;5073273;28;20476;-74
2022/03/19 00:22:51;;;;;;;12.20;4.43;;;6.20;76.40;;;;;;5057734;28;20107;-75
2022/03/19 00:25:17;;;;;;;15.50;5.35;;;6.00;76.40;;;;;;5054073;28;20060;-76
2022/03/19 00:27:43;;;;;;;14.80;5.30;;;6.10;76.00;;;;;;5055582;28;20033;-75
2022/03/19 00:30:09;;;;;;;11.43;4.60;;;6.10;75.90;;;;;;5054359;28;20021;-75
2022/03/19 00:32:35;;;;;;;16.85;4.85;;;6.10;76.00;;;;;;5053551;28;20020;-76
2022/03/19 00:35:03;;;;;;;14.45;4.40;;;6.10;75.30;;;;;;5052399;28;20120;-74
2022/03/19 00:37:28;;;;;;;14.77;4.50;;;5.90;75.90;;;;;;5059934;28;20464;-75
2022/03/19 00:39:54;;;;;;;11.50;3.80;;;5.90;76.60;;;;;;5051775;28;20064;-75
2022/03/19 00:42:19;;;;;;;17.02;4.45;;;6.00;76.50;;;;;;5052379;28;20036;-76
2022/03/19 00:44:47;;;;;;;13.40;4.40;;;5.90;76.80;;;;;;5053219;28;20481;-74
2022/03/19 00:47:12;;;;;;;16.33;4.45;;;5.80;77.20;;;;;;5053149;28;20025;-75
2022/03/19 00:49:38;;;;;;;15.60;4.82;;;5.80;78.00;;;;;;5048447;28;20033;-75
2022/03/19 00:52:05;;;;;;;12.73;5.03;;;5.70;78.20;;;;;;5052182;28;20066;-76
2022/03/19 00:54:30;;;;;;;15.93;5.57;;;5.70;78.40;;;;;;5053698;28;20112;-75
2022/03/19 00:56:56;;;;;;;15.45;5.65;;;5.60;78.80;;;;;;5051937;28;20449;-76
2022/03/19 00:59:22;;;;;;;21.05;5.13;;;5.70;79.00;;;;;;5053524;28;20028;-75
2022/03/19 01:01:47;;;;;;;18.48;5.47;;;5.60;78.20;;;;;;5053646;28;20072;-74
2022/03/19 01:04:13;;;;;;;21.70;4.75;;;5.60;78.60;;;;;;5062141;28;20021;-75
2022/03/19 01:06:39;;;;;;;15.23;5.18;;;5.70;78.20;;;;;;5048812;28;20016;-76
2022/03/19 01:09:05;;;;;;;17.08;5.57;;;5.60;78.30;;;;;;5051082;28;20051;-75
2022/03/19 01:11:31;;;;;;;16.25;4.78;;;5.60;78.30;;;;;;5054707;28;20029;-76
2022/03/19 01:13:57;;;;;;;9.45;4.72;;;5.40;78.60;;;;;;5061258;28;20025;-75
2022/03/19 01:16:25;;;;;;;17.17;4.70;;;5.30;78.80;;;;;;5060232;28;20028;-75
2022/03/19 01:18:51;;;;;;;13.30;4.55;;;5.20;80.10;;;;;;5059503;28;20052;-75
2022/03/19 01:21:17;;;;;;;15.35;4.53;;;5.30;79.70;;;;;;5053351;28;20033;-73
2022/03/19 01:23:42;;;;;;;16.52;5.10;;;5.30;79.40;;;;;;5053523;28;20090;-74
2022/03/19 01:26:08;;;;;;;15.63;4.95;;;5.30;79.10;;;;;;5051851;28;20040;-75
2022/03/19 01:28:34;;;;;;;12.27;4.28;;;5.30;79.70;;;;;;5051822;28;20029;-75
2022/03/19 01:31:00;;;;;;;12.27;4.32;;;5.20;79.20;;;;;;5053079;28;20029;-74
2022/03/19 01:33:26;;;;;;;15.75;4.32;;;5.20;78.80;;;;;;5051492;28;20064;-76
2022/03/19 01:35:51;;;;;;;21.48;5.28;;;5.20;79.30;;;;;;5051455;28;20501;-74
2022/03/19 01:38:17;;;;;;;14.98;4.28;;;5.10;79.60;;;;;;5051205;28;20350;-75
2022/03/19 01:40:43;;;;;;;13.50;4.30;;;4.90;79.70;;;;;;5051444;28;20056;-74
2022/03/19 01:43:08;;;;;;;18.80;4.78;;;4.90;80.10;;;;;;5047577;28;20029;-74
2022/03/19 01:45:34;;;;;;;10.70;4.50;;;4.80;80.30;;;;;;5051326;28;20017;-74
2022/03/19 01:48:00;;;;;;;12.50;4.90;;;4.80;80.20;;;;;;5051911;28;20036;-73
2022/03/19 01:50:26;;;;;;;15.93;4.90;;;4.80;80.40;;;;;;5038896;28;20033;-74
2022/03/19 01:52:52;;;;;;;17.02;4.47;;;4.70;80.80;;;;;;5048979;28;20392;-74
2022/03/19 01:55:21;;;;;;;16.60;4.78;;;4.70;80.90;;;;;;5052831;28;20036;-74
2022/03/19 01:57:48;;;;;;;16.98;4.22;;;4.60;81.20;;;;;;5051746;28;20036;-74
2022/03/19 02:00:17;;;;;;;15.90;4.70;;;4.60;81.70;;;;;;5050635;28;20036;-75
2022/03/19 02:02:44;;;;;;;18.30;5.00;;;4.60;81.80;;;;;;5052682;28;20025;-74
2022/03/19 02:05:17;;;;;;;17.48;4.50;;;4.70;82.30;;;;;;5052323;28;20032;-75
2022/03/19 02:07:44;;;;;;;15.90;4.45;;;4.60;82.10;;;;;;5047557;28;20112;-72
2022/03/19 02:10:11;;;;;;;14.90;5.20;;;4.60;82.10;;;;;;5049063;28;20039;-74
2022/03/19 02:12:37;;;;;;;18.70;4.40;;;4.60;83.10;;;;;;5052591;28;20416;-74
2022/03/19 02:15:04;;;;;;;9.70;3.38;;;4.50;82.40;;;;;;5052405;28;20091;-76
2022/03/19 02:17:29;;;;;;;14.00;4.68;;;4.60;83.10;;;;;;5049932;28;20103;-75
2022/03/19 02:19:56;;;;;;;15.05;4.43;;;4.60;82.80;;;;;;5051053;28;20486;-75
2022/03/19 02:22:26;;;;;;;15.13;4.57;;;4.50;82.60;;;;;;5050461;28;20115;-76
2022/03/19 02:27:37;;;;;;;;;;;4.50;83.90;;;;;;5047313;28;20040;-73
2022/03/19 02:30:05;;;;;;;13.27;4.50;;;4.50;83.70;;;;;;5032426;28;19909;-74
2022/03/19 02:32:31;;;;;;;11.15;4.50;;;4.60;83.80;;;;;;5052814;28;20466;-74
2022/03/19 02:34:57;;;;;;;17.75;4.78;;;4.50;83.90;;;;;;5055202;28;20473;-74
2022/03/19 02:37:23;;;;;;;14.10;4.80;;;4.40;83.80;;;;;;5054519;28;20136;-75
2022/03/19 02:39:49;;;;;;;20.63;4.68;;;4.30;83.70;;;;;;5055469;28;20021;-74
2022/03/19 02:42:16;;;;;;;15.35;4.78;;;4.30;84.10;;;;;;5056373;28;20029;-74
2022/03/19 02:44:42;;;;;;;15.40;3.97;;;4.40;84.50;;;;;;5056454;28;20078;-73
2022/03/19 02:47:08;;;;;;;16.13;4.45;;;4.30;84.20;;;;;;5056668;28;20045;-75
2022/03/19 02:49:35;;;;;;;14.98;5.00;;;4.30;83.90;;;;;;5057088;28;20056;-75
2022/03/19 02:52:01;;;;;;;19.08;4.55;;;4.30;84.80;;;;;;5056494;28;20515;-75
2022/03/19 02:54:29;;;;;;;17.58;5.65;;;4.30;84.70;;;;;;5056554;28;20021;-74
2022/03/19 02:56:55;;;;;;;15.60;5.13;;;4.40;85.10;;;;;;5055150;28;20469;-74
2022/03/19 02:59:29;;;;;;;17.90;4.63;;;4.40;85.20;;;;;;5053087;28;20021;-74
2022/03/19 03:02:00;;;;;;;20.20;5.13;;;4.30;84.80;;;;;;5053803;28;20434;-74
2022/03/19 03:04:27;;;;;;;17.38;4.57;;;4.30;85.10;;;;;;5072432;28;20033;-74
2022/03/19 03:06:56;;;;;;;15.75;5.20;;;4.20;85.50;;;;;;5057105;28;20052;-73
2022/03/19 03:09:23;;;;;;;10.48;4.65;;;4.20;85.80;;;;;;5055930;28;20028;-76
2022/03/19 03:11:50;;;;;;;15.13;5.28;;;4.30;86.20;;;;;;5058230;28;20017;-75
2022/03/19 03:14:16;;;;;;;17.67;4.95;;;4.20;85.90;;;;;;5056652;28;20472;-75
2022/03/19 03:16:42;;;;;;;19.35;5.25;;;4.30;86.10;;;;;;5055390;28;20029;-76
2022/03/19 03:19:10;;;;;;;17.08;5.05;;;4.20;86.10;;;;;;5055619;28;20043;-75
2022/03/19 03:21:37;;;;;;;15.30;5.37;;;4.10;86.50;;;;;;5060961;28;20033;-74
2022/03/19 03:24:03;;;;;;;13.50;5.00;;;4.10;86.60;;;;;;5069341;28;20028;-75
2022/03/19 03:26:30;;;;;;;21.20;6.13;;;4.00;86.70;;;;;;5057897;28;20025;-73
2022/03/19 03:28:57;;;;;;;13.00;4.77;;;4.00;87.30;;;;;;5056940;28;20168;-74
2022/03/19 03:31:23;;;;;;;14.23;4.73;;;4.00;87.30;;;;;;5054429;28;20044;-75
2022/03/19 03:33:49;;;;;;;15.97;5.63;;;4.00;87.40;;;;;;5055621;28;20382;-75
2022/03/19 03:36:15;;;;;;;18.87;5.53;;;3.90;87.60;;;;;;5057870;28;20476;-75
2022/03/19 03:38:41;;;;;;;13.87;4.30;;;3.90;88.00;;;;;;5075945;28;20480;-75
2022/03/19 03:41:07;;;;;;;18.50;5.13;;;3.90;87.90;;;;;;5056421;28;20043;-74
2022/03/19 03:43:33;;;;;;;18.43;5.80;;;3.90;87.90;;;;;;5055157;28;20044;-74
2022/03/19 03:45:59;;;;;;;15.23;5.40;;;3.80;88.30;;;;;;5053455;28;20032;-74
2022/03/19 03:48:24;;;;;;;18.63;5.37;;;3.70;88.40;;;;;;5055630;28;20434;-75
2022/03/19 03:50:53;;;;;;;18.70;5.10;;;3.70;88.80;;;;;;5057925;28;20028;-74
2022/03/19 03:53:20;;;;;;;9.53;4.13;;;3.70;88.70;;;;;;5056273;28;20037;-74
2022/03/19 03:55:46;;;;;;;14.77;5.13;;;3.60;88.60;;;;;;5053514;28;20025;-74
2022/03/19 03:58:12;;;;;;;15.27;4.60;;;3.60;88.90;;;;;;5054602;28;20037;-74
2022/03/19 04:00:38;;;;;;;12.27;4.80;;;3.50;89.00;;;;;;5057017;28;20025;-75
2022/03/19 04:03:06;;;;;;;13.97;4.13;;;3.50;89.10;;;;;;5058151;28;20029;-74
2022/03/19 04:05:33;;;;;;;18.93;5.40;;;3.60;89.30;;;;;;5054823;28;20021;-75
2022/03/19 04:08:00;;;;;;;15.17;3.93;;;3.50;89.40;;;;;;5055841;28;20040;-75
2022/03/19 04:10:25;;;;;;;17.27;4.23;;;3.50;89.50;;;;;;5049374;28;20040;-75
2022/03/19 04:12:51;;;;;;;25.30;5.10;;;3.50;89.70;;;;;;5052704;28;20109;-75
2022/03/19 04:15:18;;;;;;;12.87;4.93;;;3.40;89.60;;;;;;5054500;28;20025;-74
2022/03/19 04:17:44;;;;;;;19.20;4.93;;;3.40;90.00;;;;;;5053243;28;20036;-74
2022/03/19 04:20:10;;;;;;;13.13;4.40;;;3.30;90.10;;;;;;5064332;28;20362;-74
2022/03/19 04:22:44;;;;;;;17.90;4.57;;;3.30;90.00;;;;;;5052418;28;20489;-74
2022/03/19 04:25:21;;;;;;;14.90;5.27;;;3.40;90.20;;;;;;5049022;28;20554;-74
2022/03/19 04:27:49;;;;;;;16.30;5.10;;;3.30;90.00;;;;;;5048954;28;20039;-75
2022/03/19 04:30:17;;;;;;;14.43;4.93;;;3.20;89.90;;;;;;5052651;28;20131;-75
2022/03/19 04:32:47;;;;;;;14.53;4.73;;;3.20;90.30;;;;;;5051933;28;20116;-75
2022/03/19 04:38:00;;;;;;;15.30;5.30;;;3.20;90.10;;;;;;5055143;28;20040;-73
2022/03/19 04:40:26;;;;;;;16.63;4.33;;;3.20;90.00;;;;;;5056469;28;20424;-75
2022/03/19 04:42:51;;;;;;;11.27;4.27;;;3.20;90.40;;;;;;5053639;28;20063;-75
2022/03/19 04:45:17;;;;;;;13.87;3.77;;;3.10;90.50;;;;;;5053470;28;20392;-74
2022/03/19 04:47:43;;;;;;;14.37;3.90;;;3.00;90.30;;;;;;5064390;28;20025;-74
2022/03/19 04:50:09;;;;;;;10.93;4.03;;;2.90;90.40;;;;;;5069702;28;20090;-74
2022/03/19 04:52:34;;;;;;;10.83;3.37;;;3.00;90.70;;;;;;5052837;28;20021;-72
2022/03/19 04:55:01;;;;;;;13.37;3.93;;;2.90;90.80;;;;;;5051314;28;20078;-71
2022/03/19 04:57:30;;;;;;;11.67;4.30;;;2.90;90.70;;;;;;5052841;28;20033;-71
2022/03/19 04:59:57;;;;;;;15.63;4.50;;;2.80;90.60;;;;;;5053725;28;20126;-71
2022/03/19 05:02:24;;;;;;;15.43;5.00;;;2.80;90.80;;;;;;5053744;28;20057;-71
2022/03/19 05:04:54;;;;;;;16.80;5.60;;;2.80;91.00;;;;;;5053534;28;20029;-73
2022/03/19 05:07:20;;;;;;;19.13;4.70;;;2.80;91.10;;;;;;5050402;28;20124;-72
2022/03/19 05:12:33;;;;;;;14.98;4.80;;;2.60;91.00;;;;;;5054986;28;20042;-68
2022/03/19 05:15:00;;;;;;;18.77;4.20;;;2.70;91.50;;;;;;5055148;28;20033;-69
2022/03/19 05:17:26;;;;;;;17.50;4.40;;;2.60;91.00;;;;;;5053557;28;20048;-68
2022/03/19 05:19:52;;;;;;;20.20;5.00;;;2.70;91.20;;;;;;5053731;28;20489;-70
2022/03/19 05:22:18;;;;;;;12.13;4.30;;;2.70;91.00;;;;;;5051781;28;20067;-71
2022/03/19 05:24:43;;;;;;;13.33;3.80;;;2.70;91.10;;;;;;5052174;28;20029;-70
2022/03/19 05:27:09;;;;;;;21.07;5.30;;;2.80;91.20;;;;;;5053987;28;20033;-71
2022/03/19 05:29:36;;;;;;;22.50;4.97;;;2.80;91.10;;;;;;5052959;28;20477;-71
2022/03/19 05:32:02;;;;;;;16.10;4.57;;;2.80;91.10;;;;;;5049221;28;20029;-69
2022/03/19 05:34:31;;;;;;;13.80;4.40;;;2.80;90.80;;;;;;5061693;28;20124;-73
2022/03/19 05:37:02;;;;;;;16.13;4.40;;;2.80;91.10;;;;;;5062340;28;20036;-72
2022/03/19 05:39:28;;;;;;;20.60;5.57;;;2.70;91.10;;;;;;5058140;28;20056;-72
2022/03/19 05:41:55;;;;;;;11.90;4.17;;;2.80;91.40;;;;;;5050443;28;20053;-72
2022/03/19 05:44:21;;;;;;;13.37;4.10;;;2.70;91.30;;;;;;5051750;28;20052;-71
2022/03/19 05:46:47;;;;;;;18.27;4.73;;;2.70;91.40;;;;;;5050217;28;20068;-70
2022/03/19 05:49:13;;;;;;;15.63;3.90;;;2.70;91.30;;;;;;5052021;28;20468;-70
2022/03/19 05:51:38;;;;;;;12.80;4.23;;;2.80;91.30;;;;;;5050991;28;20028;-70
2022/03/19 05:54:04;;;;;;;11.90;4.03;;;2.80;91.30;;;;;;5051986;28;20029;-70
2022/03/19 05:56:30;;;;;;;16.23;5.00;;;2.80;91.10;;;;;;5053163;28;20044;-69
2022/03/19 05:58:56;;;;;;;16.37;4.03;;;2.90;91.30;;;;;;5058400;28;20370;-70
2022/03/19 06:01:26;;;;;;;8.90;3.50;;;2.80;91.00;;;;;;5053450;28;20166;-69
2022/03/19 06:03:55;;;;;;;16.83;4.50;;;2.90;90.90;;;;;;5054923;28;20092;-68
2022/03/19 06:06:21;;;;;;;14.03;3.90;;;3.10;91.10;;;;;;5046584;28;20393;-70
2022/03/19 06:08:46;;;;;;;16.37;6.60;;;3.10;90.80;;;;;;5048883;28;20025;-70
2022/03/19 06:11:12;;;;;;;21.63;7.17;;;3.10;90.70;;;;;;5048562;28;20033;-70
2022/03/19 06:13:38;;;;;;;19.13;8.17;;;3.20;90.50;;;;;;5055396;28;20461;-71
2022/03/19 06:16:04;;;;;;;18.40;6.07;;;3.30;90.30;;;;;;5052959;28;20032;-70
2022/03/19 06:18:30;;;;;;;22.67;7.37;;;3.20;90.20;;;;;;5049866;28;20024;-71
2022/03/19 06:20:56;;;;;;;15.30;6.83;;;3.20;90.30;;;;;;5050077;28;20044;-69
2022/03/19 06:23:22;;;;;;;15.37;6.47;;;3.30;90.20;;;;;;5049034;28;20029;-70
2022/03/19 06:25:48;;;;;;;13.53;5.43;;;3.50;89.60;;;;;;5048977;28;20033;-71
2022/03/19 06:28:14;;;;;;;20.13;6.87;;;3.50;90.00;;;;;;5045416;28;20026;-71
2022/03/19 06:30:40;;;;;;;13.37;4.60;;;3.60;89.10;;;;;;5049655;28;20056;-71
2022/03/19 06:33:07;;;;;;;16.03;5.20;;;3.70;88.50;;;;;;5050113;28;20161;-69
2022/03/19 06:38:18;;;;;;;12.47;4.57;;;3.60;89.00;;;;;;5045621;28;20080;-69
2022/03/19 06:40:43;;;;;;;14.87;5.00;;;3.80;88.60;;;;;;5046035;28;20028;-69
2022/03/19 06:43:10;;;;;;;10.93;3.97;;;3.80;88.30;;;;;;5052767;28;20040;-70
2022/03/19 06:45:37;;;;;;;11.40;4.17;;;4.00;87.70;;;;;;5048100;28;20029;-69
2022/03/19 06:48:03;;;;;;;8.93;3.40;;;4.10;87.70;;;;;;5050688;28;20345;-69
2022/03/19 06:50:28;;;;;;;13.13;3.20;;;4.30;86.80;;;;;;5057446;28;21263;-71
2022/03/19 06:52:54;;;;;;;7.82;2.72;;;4.50;85.70;;;;;;5049792;28;20120;-70
2022/03/19 06:55:20;;;;;;;14.43;3.70;;;4.80;84.70;;;;;;5049581;28;20059;-69
2022/03/19 06:57:45;;;;;;;7.47;3.50;;;4.90;82.70;;;;;;5053652;28;20079;-72
2022/03/19 07:00:12;;;;;;;11.40;3.20;;;5.20;82.70;;;;;;5047084;28;20415;-71
2022/03/19 07:02:51;;;;;;;12.20;3.88;;;;;;;;;;5046125;28;20029;-71
2022/03/19 07:05:21;;;;;;;9.55;2.92;;;;;;;;;;5047133;28;20026;-71
2022/03/19 07:10:15;;;;;;;6.68;2.55;;;;;;;;;;5038333;22;20052;-67
2022/03/19 07:12:45;;;;;;;13.32;2.53;;;6.60;78.80;;;;;;5030462;28;20021;-66
2022/03/19 07:15:12;;;;;;;10.95;2.58;;;;;;;;;;5032497;28;20493;-67
2022/03/19 07:17:38;;;;;;;10.23;2.55;;;8.50;63.10;;;;;;5031118;28;20055;-67
2022/03/19 07:20:04;;;;;;;10.73;2.70;;;7.30;68.40;;;;;;5031900;28;20108;-66
2022/03/19 07:22:55;;;;;;;10.30;2.80;;;8.20;70.40;;;;;;5029074;28;20037;-66
2022/03/19 07:25:24;;;;;;;11.23;3.20;;;7.40;70.00;;;;;;5030578;28;20489;-67
2022/03/19 07:27:51;;;;;;;11.70;3.25;;;7.50;72.20;;;;;;5027265;28;20025;-66
2022/03/19 07:30:17;;;;;;;8.00;2.85;;;8.70;69.80;;;;;;5029750;28;20068;-65
2022/03/19 07:32:43;;;;;;;10.77;2.15;;;8.50;64.40;;;;;;5022735;28;20018;-66
2022/03/19 07:35:10;;;;;;;7.18;2.55;;;9.40;60.20;;;;;;5031430;28;20026;-65
2022/03/19 07:37:40;;;;;;;6.13;2.00;;;10.90;56.30;;;;;;5024763;28;20033;-66
2022/03/19 07:41:45;;;;;;;8.02;2.33;;;10.50;57.40;;;;;;5030425;28;20030;-66
2022/03/19 07:43:07;;;;;;;7.38;2.90;;;11.90;49.40;;;;;;5030034;28;20121;-65
2022/03/19 07:45:33;;;;;;;9.02;2.50;;;12.20;49.00;;;;;;5023494;28;20033;-65
2022/03/19 07:47:59;;;;;;;6.45;2.45;;;16.00;37.70;;;;;;5030752;28;20026;-66
2022/03/19 07:50:25;;;;;;;9.05;2.22;;;14.80;38.40;;;;;;5032071;28;20082;-66
2022/03/19 07:52:51;;;;;;;9.73;2.28;;;;;;;;;;5033077;28;20104;-66
2022/03/19 07:55:17;;;;;;;13.23;4.25;;;13.00;49.60;;;;;;5030545;28;20026;-66
2022/03/19 07:57:43;;;;;;;14.60;4.20;;;13.00;46.20;;;;;;5031292;28;20063;-66
2022/03/19 08:00:09;;;;;;;11.48;3.15;;;11.10;54.40;;;;;;5029458;28;20095;-66
2022/03/19 08:02:35;;;;;;;9.57;2.90;;;12.20;50.00;;;;;;5027426;28;20025;-67
2022/03/19 08:05:03;;;;;;;10.93;2.25;;;13.10;44.30;;;;;;5038065;28;20104;-67
2022/03/19 08:07:29;;;;;;;8.05;2.35;;;12.50;45.60;;;;;;5034046;28;20028;-68
2022/03/19 08:09:54;;;;;;;9.90;2.78;;;12.50;46.30;;;;;;5028860;28;20037;-66
2022/03/19 08:12:20;;;;;;;7.75;1.90;;;10.00;53.90;;;;;;5028204;28;20029;-65
2022/03/19 08:14:46;;;;;;;7.55;2.45;;;11.00;54.30;;;;;;5028123;28;20109;-66
2022/03/19 08:17:12;;;;;;;9.00;2.45;;;15.50;40.70;;;;;;5028772;28;20017;-66
2022/03/19 08:19:38;;;;;;;8.80;2.70;;;16.00;40.30;;;;;;5029870;28;20029;-66
2022/03/19 08:22:03;;;;;;;13.75;3.33;;;13.10;43.60;;;;;;5029849;28;20017;-67
2022/03/19 08:24:29;;;;;;;13.75;4.05;;;11.80;51.70;;;;;;5030186;28;20057;-67
2022/03/19 08:26:55;;;;;;;7.57;2.20;;;11.60;51.90;;;;;;5025700;28;20026;-66
2022/03/19 08:29:24;;;;;;;8.13;2.30;;;10.30;58.10;;;;;;5029696;28;20045;-66
2022/03/19 08:31:51;;;;;;;5.30;1.90;;;9.40;61.10;;;;;;5031116;28;20367;-71
2022/03/19 08:34:17;;;;;;;7.55;2.30;;;9.50;58.20;;;;;;5034393;28;20459;-70
2022/03/19 08:36:42;;;;;;;7.35;2.30;;;10.70;55.50;;;;;;5032721;28;20053;-70
2022/03/19 08:41:53;;;;;;;10.00;2.53;;;;;;;;;;5032972;28;20407;-69
2022/03/19 08:44:18;;;;;;;9.35;2.35;;;12.20;51.10;;;;;;5030482;28;20025;-70
2022/03/19 08:46:44;;;;;;;6.93;2.67;;;10.20;52.70;;;;;;5034796;28;20152;-70
2022/03/19 08:49:10;;;;;;;10.07;2.65;;;;;;;;;;5035336;28;20484;-70
2022/03/19 08:51:42;;;;;;;9.63;2.30;;;15.60;37.80;;;;;;5034302;28;20036;-72
2022/03/19 08:54:09;;;;;;;8.35;2.17;;;14.10;40.00;;;;;;5038280;28;20029;-70
2022/03/19 08:56:36;;;;;;;8.80;2.35;;;14.80;38.90;;;;;;5026665;28;20022;-67
2022/03/19 08:59:01;;;;;;;9.05;2.20;;;12.50;44.90;;;;;;5030822;28;20416;-69
2022/03/19 09:01:28;;;;;;;8.57;2.60;;;;;;;;;;5034625;28;20029;-69
2022/03/19 09:03:54;;;;;;;5.47;1.95;;;10.80;49.60;;;;;;5028903;28;20258;-69
2022/03/19 09:06:20;;;;;;;8.95;2.58;;;10.30;51.20;;;;;;5029011;28;20528;-67
2022/03/19 09:08:48;;;;;;;6.55;2.05;;;9.90;50.40;;;;;;5027725;28;20536;-70
2022/03/19 09:11:18;;;;;;;7.55;2.03;;;10.50;52.30;;;;;;5027997;28;20494;-71
2022/03/19 09:13:47;;;;;;;14.32;7.95;;;12.00;45.60;;;;;;5030112;28;20013;-69
2022/03/19 09:16:14;;;;;;;25.17;22.20;;;11.70;46.40;;;;;;5028243;28;20405;-70
2022/03/19 09:18:40;;;;;;;9.32;2.20;;;;;;;;;;5030663;28;20021;-70
2022/03/19 09:21:05;;;;;;;9.48;2.50;;;9.70;56.00;;;;;;5028353;28;20040;-70
2022/03/19 09:23:31;;;;;;;6.50;2.22;;;8.60;62.80;;;;;;5028992;28;20029;-69
2022/03/19 09:25:57;;;;;;;8.70;1.95;;;8.40;64.10;;;;;;5028301;28;20026;-70
2022/03/19 09:28:23;;;;;;;14.40;2.50;;;;;;;;;;5040004;28;20040;-70
2022/03/19 09:30:49;;;;;;;11.55;2.22;;;9.10;63.80;;;;;;5031573;28;20029;-69
2022/03/19 09:33:15;;;;;;;8.02;2.28;;;9.50;60.00;;;;;;5037289;28;20500;-71
2022/03/19 09:35:41;;;;;;;6.63;2.33;;;8.90;61.20;;;;;;5037091;28;20079;-70
2022/03/19 09:38:06;;;;;;;6.03;2.13;;;9.00;60.50;;;;;;5027468;28;20351;-71
2022/03/19 09:40:32;;;;;;;9.63;2.60;;;9.20;60.80;;;;;;5030394;28;20025;-71
2022/03/19 09:42:59;;;;;;;6.70;2.20;;;9.10;60.00;;;;;;5025259;28;20116;-69
2022/03/19 09:45:26;;;;;;;8.45;2.42;;;9.40;59.50;;;;;;5031655;28;20025;-69
2022/03/19 09:47:55;;;;;;;6.28;2.38;;;9.00;59.90;;;;;;5023527;28;20449;-70
2022/03/19 09:50:22;;;;;;;8.23;2.40;;;9.10;59.00;;;;;;5028320;28;20035;-72
2022/03/19 09:52:51;;;;;;;6.60;2.20;;;;;;;;;;5027478;28;20029;-68
2022/03/19 09:55:18;;;;;;;8.77;2.35;;;;;;;;;;5027487;28;20017;-67
2022/03/19 09:57:44;;;;;;;4.68;2.10;;;;;;;;;;5029188;28;20028;-68
2022/03/19 10:00:11;;;;;;;9.00;2.63;;;;;;;;;;5026615;28;20029;-69
2022/03/19 10:02:56;;;;;;;6.05;2.30;;;;;;;;;;5025315;28;20462;-66
2022/03/19 10:10:54;;;;;;;10.88;3.40;;;9.20;59.50;;;;;;5032145;28;20068;-67
2022/03/19 10:13:19;;;;;;;12.73;3.17;;;9.40;58.80;;;;;;5029806;28;20046;-72
2022/03/19 10:15:46;;;;;;;9.48;2.65;;;;;;;;;;5032948;28;20025;-69
2022/03/19 10:18:12;;;;;;;7.10;2.95;;;9.50;57.60;;;;;;5034802;28;20501;-70
2022/03/19 10:20:38;;;;;;;11.43;3.13;;;9.80;57.30;;;;;;5028497;28;20020;-72
2022/03/19 10:23:04;;;;;;;5.55;2.05;;;10.00;56.30;;;;;;5026921;28;20060;-69
2022/03/19 10:25:31;;;;;;;6.82;2.63;;;9.80;56.50;;;;;;5029256;28;20034;-70
2022/03/19 10:28:09;;;;;;;10.30;3.53;;;9.90;56.80;;;;;;5029745;28;20033;-70
2022/03/19 10:30:37;;;;;;;13.18;2.90;;;10.40;56.00;;;;;;5029895;28;20025;-70
2022/03/19 10:33:04;;;;;;;7.50;2.55;;;10.50;53.70;;;;;;5023589;28;20350;-70
2022/03/19 10:35:33;;;;;;;4.70;2.75;;;10.40;54.20;;;;;;5028096;28;20052;-68
2022/03/19 10:38:05;;;;;;;6.90;3.22;;;10.30;54.10;;;;;;5030475;28;20366;-69
2022/03/19 10:40:43;;;;;;;9.85;3.33;;;10.70;53.30;;;;;;5026607;28;20053;-68
2022/03/19 10:43:10;;;;;;;7.18;3.45;;;10.30;52.90;;;;;;5029286;28;20053;-69
2022/03/19 10:45:42;;;;;;;9.35;3.13;;;10.30;53.50;;;;;;5021872;28;20025;-69
2022/03/19 10:48:09;;;;;;;9.07;2.83;;;;;;;;;;5031380;28;20370;-69
2022/03/19 10:50:39;;;;;;;12.20;5.15;;;10.20;53.60;;;;;;5027957;28;20107;-70
2022/03/19 10:53:06;;;;;;;14.93;3.88;;;10.20;54.00;;;;;;5034398;28;20397;-69
2022/03/19 10:55:32;;;;;;;9.05;2.47;;;;;;;;;;5038844;28;20037;-68
2022/03/19 10:57:58;;;;;;;5.63;2.97;;;9.90;54.30;;;;;;5037727;28;20036;-71
2022/03/19 11:00:24;;;;;;;8.50;2.70;;;9.90;55.20;;;;;;5039732;28;20025;-69
2022/03/19 11:02:54;;;;;;;7.75;3.70;;;10.20;55.10;;;;;;5046134;28;20454;-69
2022/03/19 11:05:21;;;;;;;10.55;3.50;;;10.50;54.40;;;;;;5034081;28;20034;-71
2022/03/19 11:07:47;;;;;;;7.72;3.40;;;10.50;54.70;;;;;;5034733;28;20120;-71
2022/03/19 11:10:13;;;;;;;9.63;3.85;;;10.70;53.70;;;;;;5036100;28;20381;-70
2022/03/19 11:12:43;;;;;;;9.00;3.90;;;10.80;53.50;;;;;;5036716;28;20120;-71
2022/03/19 11:15:10;;;;;;;7.95;2.47;;;10.50;53.20;;;;;;5053705;28;20026;-69
2022/03/19 11:17:39;;;;;;;10.20;3.83;;;10.30;53.90;;;;;;5037652;28;20086;-70
2022/03/19 11:20:10;;;;;;;16.63;4.28;;;10.30;54.90;;;;;;5052735;28;20031;-71
2022/03/19 11:22:43;;;;;;;10.20;3.60;;;10.40;54.00;;;;;;5045788;28;20035;-70
2022/03/19 11:25:12;;;;;;;7.05;3.22;;;;;;;;;;5043685;28;20045;-72
2022/03/19 11:27:39;;;;;;;12.02;4.35;;;;;;;;;;5032947;28;20025;-71
2022/03/19 11:30:05;;;;;;;10.32;4.60;;;10.80;53.00;;;;;;5033332;28;20037;-71
2022/03/19 11:32:31;;;;;;;13.88;4.72;;;10.70;53.10;;;;;;5032535;28;20043;-71
2022/03/19 11:34:59;;;;;;;9.25;4.22;;;10.70;53.70;;;;;;5044889;28;20030;-71
2022/03/19 11:38:01;;;;;;;8.32;3.67;;;10.90;52.00;;;;;;5034194;28;20032;-71
2022/03/19 11:40:29;;;;;;;15.13;4.15;;;11.00;52.00;;;;;;5035123;28;20407;-72
2022/03/19 11:42:57;;;;;;;10.32;4.60;;;11.00;52.70;;;;;;5033795;28;20030;-73
2022/03/19 11:45:23;;;;;;;13.18;5.68;;;11.30;52.50;;;;;;5039878;28;20080;-72
2022/03/19 11:47:49;;;;;;;11.23;5.22;;;11.10;52.50;;;;;;5033294;28;20439;-71
2022/03/19 11:50:26;;;;;;;13.20;5.85;;;10.70;53.80;;;;;;5035758;28;20037;-71
2022/03/19 11:52:54;;;;;;;9.68;4.28;;;10.60;52.50;;;;;;5045296;28;20563;-71
2022/03/19 11:55:23;;;;;;;9.88;4.18;;;10.00;54.90;;;;;;5047541;28;20027;-71
2022/03/19 11:57:55;;;;;;;13.75;6.38;;;;;;;;;;5045429;28;20096;-70
2022/03/19 12:00:22;;;;;;;15.38;6.57;;;;;;;;;;5045175;28;20034;-73
2022/03/19 12:03:06;;;;;;;7.82;4.45;;;;;;;;;;5049961;28;20029;-72
2022/03/19 12:05:34;;;;;;;17.65;6.78;;;9.80;56.00;;;;;;5041400;28;20025;-70
2022/03/19 12:08:31;;;;;;;20.38;7.28;;;9.60;57.10;;;;;;5043726;28;20025;-71
2022/03/19 12:11:02;;;;;;;18.00;7.88;;;9.50;57.00;;;;;;5023490;28;20036;-71
2022/03/19 12:13:28;;;;;;;9.43;4.57;;;;;;;;;;5033929;28;20032;-72
2022/03/19 12:15:59;;;;;;;13.50;5.00;;;;;;;;;;5040360;28;20033;-71
2022/03/19 12:18:28;;;;;;;14.63;6.82;;;9.30;57.60;;;;;;5052914;28;20016;-71
2022/03/19 12:21:08;;;;;;;15.45;5.93;;;9.60;57.30;;;;;;5036092;28;20045;-71
2022/03/19 12:23:50;;;;;;;15.07;6.15;;;9.70;57.30;;;;;;5044699;28;20037;-71
2022/03/19 12:26:19;;;;;;;15.55;6.18;;;9.90;56.80;;;;;;5032334;28;20409;-70
2022/03/19 12:28:46;;;;;;;16.88;6.80;;;;;;;;;;5044244;28;20037;-71
2022/03/19 12:31:14;;;;;;;14.25;5.35;;;10.00;56.40;;;;;;5059601;28;20037;-70
2022/03/19 12:33:40;;;;;;;15.15;5.88;;;9.90;56.70;;;;;;5068423;28;20017;-69
2022/03/19 12:36:17;;;;;;;14.57;6.15;;;10.10;56.40;;;;;;5056344;28;20025;-70
2022/03/19 12:38:44;;;;;;;16.58;7.57;;;10.10;56.30;;;;;;5050990;28;20116;-69
2022/03/19 12:41:29;;;;;;;16.90;8.00;;;10.20;55.50;;;;;;5039384;28;20509;-70
2022/03/19 12:43:56;;;;;;;19.47;8.33;;;10.20;56.00;;;;;;5055119;28;20092;-71
2022/03/19 12:46:31;;;;;;;22.80;9.63;;;10.40;54.20;;;;;;5046260;28;20021;-71
2022/03/19 12:49:03;;;;;;;19.90;9.90;;;10.40;54.30;;;;;;5022863;28;20025;-70
2022/03/19 12:51:29;;;;;;;23.65;11.07;;;;;;;;;;5029823;28;20038;-68
2022/03/19 12:53:55;;;;;;;17.70;10.85;;;10.30;55.00;;;;;;5035125;28;20038;-70
2022/03/19 12:56:25;;;;;;;21.00;12.27;;;;;;;;;;5026967;28;20477;-70
2022/03/19 12:58:53;;;;;;;28.15;12.93;;;10.10;54.40;;;;;;5034027;28;20102;-70
2022/03/19 13:01:25;;;;;;;24.40;13.15;;;10.10;54.70;;;;;;5033663;28;20029;-69
2022/03/19 13:03:57;;;;;;;21.25;11.50;;;10.30;53.50;;;;;;5027528;28;20474;-70
2022/03/19 13:06:36;;;;;;;24.80;12.40;;;;;;;;;;5026563;28;20029;-70
2022/03/19 13:09:02;;;;;;;28.45;12.80;;;10.10;53.50;;;;;;5060903;23;20390;-73
2022/03/19 13:11:39;;;;;;;27.98;14.50;;;10.20;53.80;;;;;;5058074;28;20104;-72
2022/03/19 13:14:05;;;;;;;27.60;13.35;;;10.20;51.80;;;;;;5053759;28;20025;-71
2022/03/19 13:16:32;;;;;;;33.63;15.50;;;10.20;50.50;;;;;;5063543;28;20021;-70
2022/03/19 13:19:03;;;;;;;28.98;15.05;;;10.20;50.50;;;;;;5059196;28;20031;-73